DIRECCIÓN GENERAL DE AERONÁUTICA CIVIL
DIRECCIÓN METEOROLÓGICA DE CHILE
INFORMACIÓN METAR Y TAF

FIR SANTIAGO

Estación: SCSE
METAR SCSE 150200Z 20002KT CAVOK 13/11 Q1017=

TAF SCSE 142207Z 1500/1524 12004KT CAVOK TX17/1518Z TN09/1510Z BECMG 1507/1509 BKN012 TEMPO 1508/1513 VRB02KT 2000 BR BKN006 BECMG 1514/ 1516 SCT018 BECMG 1516/1518 29008KT CAVOK=

Estación: SCER
METAR SCER 161100Z 00000KT 7000 OVC014 12/10 Q1015=

TAF SCER NIL=

Estación: SCRD
METAR SCRD 142300Z 18014KT CAVOK 17/08 Q1019=

TAF SCRD 141058Z 1412/1424 VRB02KT CAVOK TX21/1418Z TN06/1412Z BECMG 1415/1417 22010KT=

Estación: SCVM
METAR SCVM 150200Z 15007KT CAVOK 18/10 Q1018=

TAF SCVM 142208Z 1500/1524 15005KT CAVOK TX25/1519Z TN08/1510Z TEMPO 1509/1513 VRB02KT 0500 FG BKN002 BECMG 1515/1517 31010KT=

Estación: SCTB
METAR SCTB 142200Z 24003KT CAVOK 21/05 Q1021=

TAF SCTB 141058Z 1412/1424 VRB02KT 5000 HZ FEW008 TX18/1418Z TN06/ 1212Z BECMG 1415/1417 24005KT CAVOK=

Estación: SCEL
METAR SCEL 150200Z 35003KT CAVOK 12/07 Q1021 NOSIG=

TAF SCEL 142208Z 1500/1524 19008KT CAVOK TX25/1519Z TN06/1509Z BECMG 1501/1502 16005KT BECMG 1507/1509 VRB02KT 3000 BR TEMPO 1507/1513 36004KT 0500 FG BKN002 BECMG 1516/1518 19010KT=

Estación: SCSN
METAR SCSN 150200Z AUTO 18006KT CAVOK 15/10 Q1020=

TAF SCSN 141057Z 1412/1424 VRB02KT CAVOK TX19/1418Z TN09/1412Z BECMG 1415/1417 22010KT=

Estación: SCRG
METAR SCRG 122000Z 17010KT CAVOK 17/06 Q1013=

TAF SCRG 121101Z 1212/1224 VRB02KT 8000 NSC TX18/1218Z TN03/1212Z TEMPO 1212/1215 2000 BR BKN005 BECMG 1215/1217 20015KT CAVOK=

Estación: SCIC
METAR SCIC 150200Z AUTO 19004KT 9999 NCD 12/09 Q1022=

TAF SCIC 141058Z 1412/1424 VRB02KT 0200 FG OVC005 TX18/1419Z TN07/ 1412Z BECMG 1413/1415 3000 BR SCT008 BECMG 1415/1417 22008KT CAVOK=

Estación: SCCH
METAR SCCH 142300Z 20002KT CAVOK 16/08 Q1024=

TAF SCCH 141059Z 1412/1424 02005KT 9999 BKN015 TX16/1418Z TN05/1412Z BECMG 1415/1417 19012KT CAVOK=

Estación: SCIE
METAR SCIE 150200Z 21006KT CAVOK 10/08 Q1025=

TAF SCIE 142209Z 1500/1524 22008KT CAVOK TX15/1519Z TN06/1510Z BECMG 1501/1503 15005KT TEMPO 1505/1515 23004KT BKN020 BECMG 1515/1517 23010KT=

Estación: SCGE
METAR SCGE 142100Z 18002KT CAVOK 15/00 Q1024=

TAF SCGE 141059Z 1412/1424 18005KT 9999 BKN010 TX15/1418Z TN04/1412Z BECMG 1416/1418 19015KT CAVOK=


Volver